sensor_id;sensor_type;location;lat;lon;timestamp;pressure;altitude;pressure_sealevel;temperature
54746;BMP180;40640;48.130;11.356;2023-10-31T00:00:14;94170.00;;;12.00
54746;BMP180;40640;48.130;11.356;2023-10-31T00:04:17;94158.00;;;12.20
54746;BMP180;40640;48.130;11.356;2023-10-31T00:08:21;94149.00;;;12.30
54746;BMP180;40640;48.130;11.356;2023-10-31T00:12:25;94165.00;;;12.00
54746;BMP180;40640;48.130;11.356;2023-10-31T00:16:28;94157.00;;;12.00
54746;BMP180;40640;48.130;11.356;2023-10-31T00:20:31;94152.00;;;12.10
54746;BMP180;40640;48.130;11.356;2023-10-31T00:24:35;94180.00;;;12.00
54746;BMP180;40640;48.130;11.356;2023-10-31T00:28:38;94172.00;;;11.80
54746;BMP180;40640;48.130;11.356;2023-10-31T00:32:41;94172.00;;;11.80
54746;BMP180;40640;48.130;11.356;2023-10-31T00:36:44;94178.00;;;11.90
54746;BMP180;40640;48.130;11.356;2023-10-31T00:40:49;94178.00;;;11.80
54746;BMP180;40640;48.130;11.356;2023-10-31T00:44:52;94187.00;;;11.90
54746;BMP180;40640;48.130;11.356;2023-10-31T00:48:55;94171.00;;;11.90
54746;BMP180;40640;48.130;11.356;2023-10-31T00:52:57;94176.00;;;11.80
54746;BMP180;40640;48.130;11.356;2023-10-31T00:57:02;94182.00;;;11.80
54746;BMP180;40640;48.130;11.356;2023-10-31T01:01:05;94172.00;;;11.90
54746;BMP180;40640;48.130;11.356;2023-10-31T01:05:10;94176.00;;;11.90
54746;BMP180;40640;48.130;11.356;2023-10-31T01:09:13;94183.00;;;11.80
54746;BMP180;40640;48.130;11.356;2023-10-31T01:13:18;94172.00;;;11.80
54746;BMP180;40640;48.130;11.356;2023-10-31T01:17:21;94194.00;;;11.70
54746;BMP180;40640;48.130;11.356;2023-10-31T01:21:24;94203.00;;;11.60
54746;BMP180;40640;48.130;11.356;2023-10-31T01:25:27;94205.00;;;11.50
54746;BMP180;40640;48.130;11.356;2023-10-31T01:29:31;94187.00;;;11.60
54746;BMP180;40640;48.130;11.356;2023-10-31T01:33:35;94190.00;;;11.40
54746;BMP180;40640;48.130;11.356;2023-10-31T01:37:38;94194.00;;;11.50
54746;BMP180;40640;48.130;11.356;2023-10-31T01:41:41;94196.00;;;11.50
54746;BMP180;40640;48.130;11.356;2023-10-31T01:45:46;94184.00;;;11.50
54746;BMP180;40640;48.130;11.356;2023-10-31T01:49:49;94189.00;;;11.60
54746;BMP180;40640;48.130;11.356;2023-10-31T01:53:52;94197.00;;;11.60
54746;BMP180;40640;48.130;11.356;2023-10-31T01:57:55;94190.00;;;11.50
54746;BMP180;40640;48.130;11.356;2023-10-31T02:02:00;94190.00;;;11.40
54746;BMP180;40640;48.130;11.356;2023-10-31T02:06:05;94193.00;;;11.50
54746;BMP180;40640;48.130;11.356;2023-10-31T02:10:09;94202.00;;;11.40
54746;BMP180;40640;48.130;11.356;2023-10-31T02:14:11;94214.00;;;11.50
54746;BMP180;40640;48.130;11.356;2023-10-31T02:18:16;94215.00;;;11.40
54746;BMP180;40640;48.130;11.356;2023-10-31T02:22:21;94217.00;;;11.40
54746;BMP180;40640;48.130;11.356;2023-10-31T02:26:23;94224.00;;;11.40
54746;BMP180;40640;48.130;11.356;2023-10-31T02:30:27;94228.00;;;11.30
54746;BMP180;40640;48.130;11.356;2023-10-31T02:34:30;94241.00;;;11.40
54746;BMP180;40640;48.130;11.356;2023-10-31T02:38:34;94241.00;;;11.20
54746;BMP180;40640;48.130;11.356;2023-10-31T02:42:37;94250.00;;;11.30
54746;BMP180;40640;48.130;11.356;2023-10-31T02:46:40;94255.00;;;11.20
54746;BMP180;40640;48.130;11.356;2023-10-31T02:50:43;94258.00;;;11.20
54746;BMP180;40640;48.130;11.356;2023-10-31T02:54:47;94248.00;;;11.20
54746;BMP180;40640;48.130;11.356;2023-10-31T02:58:50;94253.00;;;11.20
54746;BMP180;40640;48.130;11.356;2023-10-31T03:02:53;94241.00;;;11.10
54746;BMP180;40640;48.130;11.356;2023-10-31T03:06:57;94245.00;;;11.10
54746;BMP180;40640;48.130;11.356;2023-10-31T03:11:01;94247.00;;;11.10
54746;BMP180;40640;48.130;11.356;2023-10-31T03:15:06;94260.00;;;10.90
54746;BMP180;40640;48.130;11.356;2023-10-31T03:19:09;94270.00;;;10.90
54746;BMP180;40640;48.130;11.356;2023-10-31T03:23:12;94267.00;;;11.00
54746;BMP180;40640;48.130;11.356;2023-10-31T03:27:16;94271.00;;;11.10
54746;BMP180;40640;48.130;11.356;2023-10-31T03:31:19;94252.00;;;11.00
54746;BMP180;40640;48.130;11.356;2023-10-31T03:35:23;94252.00;;;11.20
54746;BMP180;40640;48.130;11.356;2023-10-31T03:39:26;94252.00;;;11.10
54746;BMP180;40640;48.130;11.356;2023-10-31T03:43:31;94259.00;;;10.90
54746;BMP180;40640;48.130;11.356;2023-10-31T03:47:33;94255.00;;;11.00
54746;BMP180;40640;48.130;11.356;2023-10-31T03:51:36;94241.00;;;10.90
54746;BMP180;40640;48.130;11.356;2023-10-31T03:55:39;94252.00;;;10.90
54746;BMP180;40640;48.130;11.356;2023-10-31T03:59:44;94252.00;;;10.90
54746;BMP180;40640;48.130;11.356;2023-10-31T04:03:47;94259.00;;;10.90
54746;BMP180;40640;48.130;11.356;2023-10-31T04:07:50;94268.00;;;11.00
54746;BMP180;40640;48.130;11.356;2023-10-31T04:11:52;94266.00;;;11.10
54746;BMP180;40640;48.130;11.356;2023-10-31T04:15:57;94275.00;;;10.90
54746;BMP180;40640;48.130;11.356;2023-10-31T04:20:00;94270.00;;;10.90
54746;BMP180;40640;48.130;11.356;2023-10-31T04:24:04;94293.00;;;10.90
54746;BMP180;40640;48.130;11.356;2023-10-31T04:28:07;94299.00;;;11.00
54746;BMP180;40640;48.130;11.356;2023-10-31T04:32:12;94300.00;;;11.00
54746;BMP180;40640;48.130;11.356;2023-10-31T04:36:15;94289.00;;;10.90
54746;BMP180;40640;48.130;11.356;2023-10-31T04:40:18;94279.00;;;10.80
54746;BMP180;40640;48.130;11.356;2023-10-31T04:44:21;94270.00;;;10.70
54746;BMP180;40640;48.130;11.356;2023-10-31T04:48:25;94275.00;;;10.70
54746;BMP180;40640;48.130;11.356;2023-10-31T04:52:28;94276.00;;;10.70
54746;BMP180;40640;48.130;11.356;2023-10-31T04:56:31;94275.00;;;10.60
54746;BMP180;40640;48.130;11.356;2023-10-31T05:00:34;94277.00;;;10.60
54746;BMP180;40640;48.130;11.356;2023-10-31T05:04:39;94294.00;;;10.70
54746;BMP180;40640;48.130;11.356;2023-10-31T05:08:42;94300.00;;;10.70
54746;BMP180;40640;48.130;11.356;2023-10-31T05:12:45;94303.00;;;10.70
54746;BMP180;40640;48.130;11.356;2023-10-31T05:16:48;94298.00;;;10.70
54746;BMP180;40640;48.130;11.356;2023-10-31T05:20:53;94310.00;;;10.70
54746;BMP180;40640;48.130;11.356;2023-10-31T05:24:55;94325.00;;;10.70
54746;BMP180;40640;48.130;11.356;2023-10-31T05:28:59;94330.00;;;10.70
54746;BMP180;40640;48.130;11.356;2023-10-31T05:33:02;94319.00;;;10.60
54746;BMP180;40640;48.130;11.356;2023-10-31T05:37:06;94334.00;;;10.60
54746;BMP180;40640;48.130;11.356;2023-10-31T05:41:09;94338.00;;;10.70
54746;BMP180;40640;48.130;11.356;2023-10-31T05:45:12;94344.00;;;10.80
54746;BMP180;40640;48.130;11.356;2023-10-31T05:49:15;94353.00;;;10.80
54746;BMP180;40640;48.130;11.356;2023-10-31T05:53:20;94357.00;;;10.60
54746;BMP180;40640;48.130;11.356;2023-10-31T05:57:22;94355.00;;;10.60
54746;BMP180;40640;48.130;11.356;2023-10-31T06:01:25;94367.00;;;10.60
54746;BMP180;40640;48.130;11.356;2023-10-31T06:05:28;94364.00;;;10.60
54746;BMP180;40640;48.130;11.356;2023-10-31T06:09:33;94378.00;;;10.70
54746;BMP180;40640;48.130;11.356;2023-10-31T06:13:36;94378.00;;;10.60
54746;BMP180;40640;48.130;11.356;2023-10-31T06:17:39;94379.00;;;10.60
54746;BMP180;40640;48.130;11.356;2023-10-31T06:21:42;94384.00;;;10.60
54746;BMP180;40640;48.130;11.356;2023-10-31T06:25:46;94383.00;;;10.60
54746;BMP180;40640;48.130;11.356;2023-10-31T06:29:49;94396.00;;;10.60
54746;BMP180;40640;48.130;11.356;2023-10-31T06:34:12;94415.00;;;10.70
54746;BMP180;40640;48.130;11.356;2023-10-31T06:38:15;94397.00;;;10.60
54746;BMP180;40640;48.130;11.356;2023-10-31T06:42:19;94405.00;;;10.70
54746;BMP180;40640;48.130;11.356;2023-10-31T06:46:22;94403.00;;;10.60
54746;BMP180;40640;48.130;11.356;2023-10-31T06:50:25;94402.00;;;10.60
54746;BMP180;40640;48.130;11.356;2023-10-31T06:54:28;94410.00;;;10.60
54746;BMP180;40640;48.130;11.356;2023-10-31T06:58:34;94419.00;;;10.60
54746;BMP180;40640;48.130;11.356;2023-10-31T07:02:37;94435.00;;;10.50
54746;BMP180;40640;48.130;11.356;2023-10-31T07:06:40;94449.00;;;10.60
54746;BMP180;40640;48.130;11.356;2023-10-31T07:10:43;94438.00;;;10.60
54746;BMP180;40640;48.130;11.356;2023-10-31T07:14:48;94458.00;;;10.60
54746;BMP180;40640;48.130;11.356;2023-10-31T07:18:51;94458.00;;;10.60
54746;BMP180;40640;48.130;11.356;2023-10-31T07:22:54;94451.00;;;10.60
54746;BMP180;40640;48.130;11.356;2023-10-31T07:26:57;94440.00;;;10.50
54746;BMP180;40640;48.130;11.356;2023-10-31T07:31:02;94435.00;;;10.60
54746;BMP180;40640;48.130;11.356;2023-10-31T07:35:06;94429.00;;;10.80
54746;BMP180;40640;48.130;11.356;2023-10-31T07:39:09;94435.00;;;10.90
54746;BMP180;40640;48.130;11.356;2023-10-31T07:43:12;94443.00;;;10.90
54746;BMP180;40640;48.130;11.356;2023-10-31T07:47:16;94455.00;;;11.10
54746;BMP180;40640;48.130;11.356;2023-10-31T07:51:20;94442.00;;;11.20
54746;BMP180;40640;48.130;11.356;2023-10-31T07:55:23;94461.00;;;11.10
54746;BMP180;40640;48.130;11.356;2023-10-31T07:59:25;94469.00;;;11.20
54746;BMP180;40640;48.130;11.356;2023-10-31T08:03:30;94456.00;;;11.00
54746;BMP180;40640;48.130;11.356;2023-10-31T08:07:33;94448.00;;;10.90
54746;BMP180;40640;48.130;11.356;2023-10-31T08:11:36;94440.00;;;11.00
54746;BMP180;40640;48.130;11.356;2023-10-31T08:15:39;94435.00;;;11.00
54746;BMP180;40640;48.130;11.356;2023-10-31T08:19:43;94455.00;;;11.00
54746;BMP180;40640;48.130;11.356;2023-10-31T08:23:46;94470.00;;;11.00
54746;BMP180;40640;48.130;11.356;2023-10-31T08:27:49;94466.00;;;11.10
54746;BMP180;40640;48.130;11.356;2023-10-31T08:31:52;94476.00;;;11.10
54746;BMP180;40640;48.130;11.356;2023-10-31T08:35:56;94506.00;;;11.10
54746;BMP180;40640;48.130;11.356;2023-10-31T08:39:59;94533.00;;;11.10
54746;BMP180;40640;48.130;11.356;2023-10-31T08:44:05;94565.00;;;11.10
54746;BMP180;40640;48.130;11.356;2023-10-31T08:48:09;94575.00;;;11.00
54746;BMP180;40640;48.130;11.356;2023-10-31T08:52:13;94566.00;;;11.10
54746;BMP180;40640;48.130;11.356;2023-10-31T08:56:16;94571.00;;;11.10
54746;BMP180;40640;48.130;11.356;2023-10-31T09:00:20;94578.00;;;11.20
54746;BMP180;40640;48.130;11.356;2023-10-31T09:04:24;94579.00;;;11.20
54746;BMP180;40640;48.130;11.356;2023-10-31T09:08:28;94565.00;;;11.20
54746;BMP180;40640;48.130;11.356;2023-10-31T09:12:31;94589.00;;;11.20
54746;BMP180;40640;48.130;11.356;2023-10-31T09:16:34;94585.00;;;11.20
54746;BMP180;40640;48.130;11.356;2023-10-31T09:20:38;94577.00;;;11.20
54746;BMP180;40640;48.130;11.356;2023-10-31T09:24:42;94586.00;;;11.20
54746;BMP180;40640;48.130;11.356;2023-10-31T09:28:53;94595.00;;;11.30
54746;BMP180;40640;48.130;11.356;2023-10-31T09:32:56;94588.00;;;11.20
54746;BMP180;40640;48.130;11.356;2023-10-31T09:36:59;94607.00;;;11.30
54746;BMP180;40640;48.130;11.356;2023-10-31T09:41:04;94601.00;;;11.30
54746;BMP180;40640;48.130;11.356;2023-10-31T09:45:08;94615.00;;;11.40
54746;BMP180;40640;48.130;11.356;2023-10-31T09:49:11;94623.00;;;11.30
54746;BMP180;40640;48.130;11.356;2023-10-31T09:53:15;94616.00;;;11.40
54746;BMP180;40640;48.130;11.356;2023-10-31T09:57:20;94598.00;;;11.40
54746;BMP180;40640;48.130;11.356;2023-10-31T10:01:23;94594.00;;;11.40
54746;BMP180;40640;48.130;11.356;2023-10-31T10:05:26;94594.00;;;11.40
54746;BMP180;40640;48.130;11.356;2023-10-31T10:09:30;94606.00;;;11.40
54746;BMP180;40640;48.130;11.356;2023-10-31T10:13:35;94618.00;;;11.40
54746;BMP180;40640;48.130;11.356;2023-10-31T10:17:38;94627.00;;;11.40
54746;BMP180;40640;48.130;11.356;2023-10-31T10:21:46;94633.00;;;11.50
54746;BMP180;40640;48.130;11.356;2023-10-31T10:25:50;94632.00;;;11.50
54746;BMP180;40640;48.130;11.356;2023-10-31T10:29:54;94639.00;;;11.60
54746;BMP180;40640;48.130;11.356;2023-10-31T10:33:57;94647.00;;;11.70
54746;BMP180;40640;48.130;11.356;2023-10-31T10:38:05;94637.00;;;11.80
54746;BMP180;40640;48.130;11.356;2023-10-31T10:42:10;94644.00;;;11.90
54746;BMP180;40640;48.130;11.356;2023-10-31T10:46:15;94645.00;;;12.00
54746;BMP180;40640;48.130;11.356;2023-10-31T10:50:20;94639.00;;;12.00
54746;BMP180;40640;48.130;11.356;2023-10-31T10:54:32;94646.00;;;12.10
54746;BMP180;40640;48.130;11.356;2023-10-31T10:58:41;94644.00;;;12.10
54746;BMP180;40640;48.130;11.356;2023-10-31T11:02:48;94644.00;;;12.20
54746;BMP180;40640;48.130;11.356;2023-10-31T11:06:55;94634.00;;;12.30
54746;BMP180;40640;48.130;11.356;2023-10-31T11:10:58;94653.00;;;12.40
54746;BMP180;40640;48.130;11.356;2023-10-31T11:15:03;94656.00;;;12.50
54746;BMP180;40640;48.130;11.356;2023-10-31T11:19:08;94641.00;;;12.50
54746;BMP180;40640;48.130;11.356;2023-10-31T11:23:12;94642.00;;;12.70
54746;BMP180;40640;48.130;11.356;2023-10-31T11:27:17;94641.00;;;12.70
54746;BMP180;40640;48.130;11.356;2023-10-31T11:31:20;94628.00;;;12.80
54746;BMP180;40640;48.130;11.356;2023-10-31T11:35:24;94633.00;;;12.90
54746;BMP180;40640;48.130;11.356;2023-10-31T11:39:27;94624.00;;;12.90
54746;BMP180;40640;48.130;11.356;2023-10-31T11:43:50;94633.00;;;13.30
54746;BMP180;40640;48.130;11.356;2023-10-31T11:47:54;94624.00;;;13.30
54746;BMP180;40640;48.130;11.356;2023-10-31T11:51:58;94618.00;;;13.20
54746;BMP180;40640;48.130;11.356;2023-10-31T11:56:02;94625.00;;;13.20
54746;BMP180;40640;48.130;11.356;2023-10-31T12:00:07;94623.00;;;13.20
54746;BMP180;40640;48.130;11.356;2023-10-31T12:04:23;94627.00;;;13.10
54746;BMP180;40640;48.130;11.356;2023-10-31T12:08:29;94617.00;;;13.30
54746;BMP180;40640;48.130;11.356;2023-10-31T12:12:32;94631.00;;;13.60
54746;BMP180;40640;48.130;11.356;2023-10-31T12:16:35;94636.00;;;13.40
54746;BMP180;40640;48.130;11.356;2023-10-31T12:20:47;94632.00;;;13.50
54746;BMP180;40640;48.130;11.356;2023-10-31T12:25:00;94634.00;;;13.50
54746;BMP180;40640;48.130;11.356;2023-10-31T12:29:11;94635.00;;;13.50
54746;BMP180;40640;48.130;11.356;2023-10-31T12:33:14;94634.00;;;13.20
54746;BMP180;40640;48.130;11.356;2023-10-31T12:37:17;94639.00;;;13.00
54746;BMP180;40640;48.130;11.356;2023-10-31T12:41:22;94639.00;;;12.90
54746;BMP180;40640;48.130;11.356;2023-10-31T12:45:25;94638.00;;;13.00
54746;BMP180;40640;48.130;11.356;2023-10-31T12:49:28;94643.00;;;13.20
54746;BMP180;40640;48.130;11.356;2023-10-31T12:53:31;94646.00;;;13.30
54746;BMP180;40640;48.130;11.356;2023-10-31T12:57:36;94647.00;;;13.30
54746;BMP180;40640;48.130;11.356;2023-10-31T13:01:42;94649.00;;;13.40
54746;BMP180;40640;48.130;11.356;2023-10-31T13:05:45;94649.00;;;13.30
54746;BMP180;40640;48.130;11.356;2023-10-31T13:09:48;94655.00;;;13.20
54746;BMP180;40640;48.130;11.356;2023-10-31T13:13:53;94655.00;;;13.10
54746;BMP180;40640;48.130;11.356;2023-10-31T13:17:56;94662.00;;;12.90
54746;BMP180;40640;48.130;11.356;2023-10-31T13:21:59;94668.00;;;12.70
54746;BMP180;40640;48.130;11.356;2023-10-31T13:26:03;94679.00;;;12.70
54746;BMP180;40640;48.130;11.356;2023-10-31T13:30:08;94672.00;;;12.70
54746;BMP180;40640;48.130;11.356;2023-10-31T13:34:12;94691.00;;;12.70
54746;BMP180;40640;48.130;11.356;2023-10-31T13:38:15;94707.00;;;12.60
54746;BMP180;40640;48.130;11.356;2023-10-31T13:42:18;94714.00;;;12.50
54746;BMP180;40640;48.130;11.356;2023-10-31T13:46:23;94702.00;;;12.50
54746;BMP180;40640;48.130;11.356;2023-10-31T13:50:26;94704.00;;;12.40
54746;BMP180;40640;48.130;11.356;2023-10-31T13:54:30;94721.00;;;12.40
54746;BMP180;40640;48.130;11.356;2023-10-31T13:58:33;94729.00;;;12.30
54746;BMP180;40640;48.130;11.356;2023-10-31T14:02:38;94735.00;;;12.30
54746;BMP180;40640;48.130;11.356;2023-10-31T14:06:42;94725.00;;;12.10
54746;BMP180;40640;48.130;11.356;2023-10-31T14:10:45;94732.00;;;12.10
54746;BMP180;40640;48.130;11.356;2023-10-31T14:14:49;94733.00;;;12.20
54746;BMP180;40640;48.130;11.356;2023-10-31T14:18:53;94728.00;;;12.20
54746;BMP180;40640;48.130;11.356;2023-10-31T14:22:57;94729.00;;;12.20
54746;BMP180;40640;48.130;11.356;2023-10-31T14:27:00;94743.00;;;12.20
54746;BMP180;40640;48.130;11.356;2023-10-31T14:31:03;94743.00;;;12.20
54746;BMP180;40640;48.130;11.356;2023-10-31T14:35:08;94741.00;;;12.10
54746;BMP180;40640;48.130;11.356;2023-10-31T14:39:11;94752.00;;;12.10
54746;BMP180;40640;48.130;11.356;2023-10-31T14:43:14;94746.00;;;12.10
54746;BMP180;40640;48.130;11.356;2023-10-31T14:47:20;94745.00;;;12.20
54746;BMP180;40640;48.130;11.356;2023-10-31T14:51:24;94757.00;;;12.20
54746;BMP180;40640;48.130;11.356;2023-10-31T14:55:27;94761.00;;;12.20
54746;BMP180;40640;48.130;11.356;2023-10-31T14:59:30;94762.00;;;12.20
54746;BMP180;40640;48.130;11.356;2023-10-31T15:03:33;94776.00;;;12.20
54746;BMP180;40640;48.130;11.356;2023-10-31T15:07:38;94776.00;;;12.10
54746;BMP180;40640;48.130;11.356;2023-10-31T15:11:42;94783.00;;;12.00
54746;BMP180;40640;48.130;11.356;2023-10-31T15:15:45;94783.00;;;11.90
54746;BMP180;40640;48.130;11.356;2023-10-31T15:19:47;94787.00;;;12.00
54746;BMP180;40640;48.130;11.356;2023-10-31T15:23:53;94780.00;;;12.10
54746;BMP180;40640;48.130;11.356;2023-10-31T15:27:57;94785.00;;;11.90
54746;BMP180;40640;48.130;11.356;2023-10-31T15:32:00;94776.00;;;11.90
54746;BMP180;40640;48.130;11.356;2023-10-31T15:36:04;94785.00;;;11.90
54746;BMP180;40640;48.130;11.356;2023-10-31T15:40:10;94794.00;;;11.80
54746;BMP180;40640;48.130;11.356;2023-10-31T15:44:14;94790.00;;;11.60
54746;BMP180;40640;48.130;11.356;2023-10-31T15:48:17;94807.00;;;11.60
54746;BMP180;40640;48.130;11.356;2023-10-31T15:52:20;94806.00;;;11.60
54746;BMP180;40640;48.130;11.356;2023-10-31T15:56:24;94802.00;;;11.60
54746;BMP180;40640;48.130;11.356;2023-10-31T16:00:27;94817.00;;;11.60
54746;BMP180;40640;48.130;11.356;2023-10-31T16:04:30;94821.00;;;11.50
54746;BMP180;40640;48.130;11.356;2023-10-31T16:08:34;94827.00;;;11.40
54746;BMP180;40640;48.130;11.356;2023-10-31T16:12:43;94826.00;;;11.30
54746;BMP180;40640;48.130;11.356;2023-10-31T16:16:45;94839.00;;;11.30
54746;BMP180;40640;48.130;11.356;2023-10-31T16:20:48;94842.00;;;11.30
54746;BMP180;40640;48.130;11.356;2023-10-31T16:24:52;94850.00;;;11.20
54746;BMP180;40640;48.130;11.356;2023-10-31T16:28:56;94866.00;;;11.20
54746;BMP180;40640;48.130;11.356;2023-10-31T16:33:01;94856.00;;;11.00
54746;BMP180;40640;48.130;11.356;2023-10-31T16:37:04;94866.00;;;11.00
54746;BMP180;40640;48.130;11.356;2023-10-31T16:41:07;94879.00;;;11.00
54746;BMP180;40640;48.130;11.356;2023-10-31T16:45:13;94893.00;;;11.10
54746;BMP180;40640;48.130;11.356;2023-10-31T16:49:16;94893.00;;;11.00
54746;BMP180;40640;48.130;11.356;2023-10-31T16:53:19;94898.00;;;11.10
54746;BMP180;40640;48.130;11.356;2023-10-31T16:57:22;94908.00;;;11.10
54746;BMP180;40640;48.130;11.356;2023-10-31T17:01:27;94912.00;;;11.00
54746;BMP180;40640;48.130;11.356;2023-10-31T17:05:29;94919.00;;;11.00
54746;BMP180;40640;48.130;11.356;2023-10-31T17:09:32;94925.00;;;11.10
54746;BMP180;40640;48.130;11.356;2023-10-31T17:13:35;94928.00;;;11.00
54746;BMP180;40640;48.130;11.356;2023-10-31T17:17:40;94935.00;;;11.00
54746;BMP180;40640;48.130;11.356;2023-10-31T17:21:43;94953.00;;;11.10
54746;BMP180;40640;48.130;11.356;2023-10-31T17:25:46;94959.00;;;11.20
54746;BMP180;40640;48.130;11.356;2023-10-31T17:29:49;94961.00;;;11.20
54746;BMP180;40640;48.130;11.356;2023-10-31T17:33:54;94961.00;;;11.20
54746;BMP180;40640;48.130;11.356;2023-10-31T17:37:58;94977.00;;;11.10
54746;BMP180;40640;48.130;11.356;2023-10-31T17:42:01;94984.00;;;11.10
54746;BMP180;40640;48.130;11.356;2023-10-31T17:46:12;94984.00;;;11.20
54746;BMP180;40640;48.130;11.356;2023-10-31T17:50:37;94982.00;;;11.30
54746;BMP180;40640;48.130;11.356;2023-10-31T17:54:40;94995.00;;;11.10
54746;BMP180;40640;48.130;11.356;2023-10-31T17:58:43;94996.00;;;11.10
54746;BMP180;40640;48.130;11.356;2023-10-31T18:02:46;94997.00;;;11.20
54746;BMP180;40640;48.130;11.356;2023-10-31T18:06:51;95008.00;;;11.10
54746;BMP180;40640;48.130;11.356;2023-10-31T18:10:54;95015.00;;;11.10
54746;BMP180;40640;48.130;11.356;2023-10-31T18:14:57;95018.00;;;11.00
54746;BMP180;40640;48.130;11.356;2023-10-31T18:19:00;95027.00;;;11.10
54746;BMP180;40640;48.130;11.356;2023-10-31T18:23:05;95035.00;;;11.10
54746;BMP180;40640;48.130;11.356;2023-10-31T18:27:08;95032.00;;;11.10
54746;BMP180;40640;48.130;11.356;2023-10-31T18:31:11;95032.00;;;10.90
54746;BMP180;40640;48.130;11.356;2023-10-31T18:35:14;95033.00;;;10.90
54746;BMP180;40640;48.130;11.356;2023-10-31T18:39:18;95043.00;;;11.00
54746;BMP180;40640;48.130;11.356;2023-10-31T18:43:21;95048.00;;;10.90
54746;BMP180;40640;48.130;11.356;2023-10-31T18:47:24;95052.00;;;10.90
54746;BMP180;40640;48.130;11.356;2023-10-31T18:51:28;95050.00;;;11.00
54746;BMP180;40640;48.130;11.356;2023-10-31T18:55:32;95054.00;;;11.00
54746;BMP180;40640;48.130;11.356;2023-10-31T18:59:35;95060.00;;;10.80
54746;BMP180;40640;48.130;11.356;2023-10-31T19:03:38;95065.00;;;10.90
54746;BMP180;40640;48.130;11.356;2023-10-31T19:07:42;95064.00;;;10.80
54746;BMP180;40640;48.130;11.356;2023-10-31T19:11:46;95074.00;;;10.90
54746;BMP180;40640;48.130;11.356;2023-10-31T19:15:49;95077.00;;;10.90
54746;BMP180;40640;48.130;11.356;2023-10-31T19:19:53;95074.00;;;11.00
54746;BMP180;40640;48.130;11.356;2023-10-31T19:23:56;95078.00;;;10.90
54746;BMP180;40640;48.130;11.356;2023-10-31T19:28:01;95100.00;;;11.00
54746;BMP180;40640;48.130;11.356;2023-10-31T19:32:06;95104.00;;;11.10
54746;BMP180;40640;48.130;11.356;2023-10-31T19:36:09;95110.00;;;11.00
54746;BMP180;40640;48.130;11.356;2023-10-31T19:40:13;95112.00;;;10.90
54746;BMP180;40640;48.130;11.356;2023-10-31T19:44:18;95113.00;;;11.10
54746;BMP180;40640;48.130;11.356;2023-10-31T19:48:21;95118.00;;;11.20
54746;BMP180;40640;48.130;11.356;2023-10-31T19:52:24;95116.00;;;11.10
54746;BMP180;40640;48.130;11.356;2023-10-31T19:56:27;95125.00;;;11.10
54746;BMP180;40640;48.130;11.356;2023-10-31T20:00:33;95128.00;;;11.10
54746;BMP180;40640;48.130;11.356;2023-10-31T20:04:36;95132.00;;;11.00
54746;BMP180;40640;48.130;11.356;2023-10-31T20:08:39;95140.00;;;11.10
54746;BMP180;40640;48.130;11.356;2023-10-31T20:12:42;95148.00;;;11.10
54746;BMP180;40640;48.130;11.356;2023-10-31T20:16:47;95144.00;;;11.20
54746;BMP180;40640;48.130;11.356;2023-10-31T20:20:50;95157.00;;;11.10
54746;BMP180;40640;48.130;11.356;2023-10-31T20:24:53;95160.00;;;11.40
54746;BMP180;40640;48.130;11.356;2023-10-31T20:28:56;95152.00;;;11.30
54746;BMP180;40640;48.130;11.356;2023-10-31T20:33:01;95147.00;;;11.10
54746;BMP180;40640;48.130;11.356;2023-10-31T20:37:04;95147.00;;;11.10
54746;BMP180;40640;48.130;11.356;2023-10-31T20:41:07;95153.00;;;11.20
54746;BMP180;40640;48.130;11.356;2023-10-31T20:45:10;95148.00;;;11.30
54746;BMP180;40640;48.130;11.356;2023-10-31T20:49:15;95146.00;;;11.20
54746;BMP180;40640;48.130;11.356;2023-10-31T20:53:18;95149.00;;;11.30
54746;BMP180;40640;48.130;11.356;2023-10-31T20:57:22;95143.00;;;11.20
54746;BMP180;40640;48.130;11.356;2023-10-31T21:01:25;95145.00;;;11.20
54746;BMP180;40640;48.130;11.356;2023-10-31T21:05:30;95157.00;;;11.10
54746;BMP180;40640;48.130;11.356;2023-10-31T21:09:33;95169.00;;;11.10
54746;BMP180;40640;48.130;11.356;2023-10-31T21:13:36;95169.00;;;11.20
54746;BMP180;40640;48.130;11.356;2023-10-31T21:17:39;95158.00;;;11.20
54746;BMP180;40640;48.130;11.356;2023-10-31T21:21:44;95154.00;;;11.10
54746;BMP180;40640;48.130;11.356;2023-10-31T21:25:47;95160.00;;;11.20
54746;BMP180;40640;48.130;11.356;2023-10-31T21:29:50;95173.00;;;11.30
54746;BMP180;40640;48.130;11.356;2023-10-31T21:33:53;95163.00;;;11.20
54746;BMP180;40640;48.130;11.356;2023-10-31T21:37:58;95169.00;;;11.10
54746;BMP180;40640;48.130;11.356;2023-10-31T21:42:02;95166.00;;;11.10
54746;BMP180;40640;48.130;11.356;2023-10-31T21:46:05;95168.00;;;11.20
54746;BMP180;40640;48.130;11.356;2023-10-31T21:50:08;95170.00;;;11.20
54746;BMP180;40640;48.130;11.356;2023-10-31T21:54:13;95169.00;;;11.20
54746;BMP180;40640;48.130;11.356;2023-10-31T21:58:16;95178.00;;;11.20
54746;BMP180;40640;48.130;11.356;2023-10-31T22:02:19;95174.00;;;11.20
54746;BMP180;40640;48.130;11.356;2023-10-31T22:06:22;95174.00;;;11.30
54746;BMP180;40640;48.130;11.356;2023-10-31T22:10:27;95178.00;;;11.20
54746;BMP180;40640;48.130;11.356;2023-10-31T22:14:30;95175.00;;;11.10
54746;BMP180;40640;48.130;11.356;2023-10-31T22:18:33;95174.00;;;11.30
54746;BMP180;40640;48.130;11.356;2023-10-31T22:22:36;95180.00;;;11.20
54746;BMP180;40640;48.130;11.356;2023-10-31T22:26:41;95183.00;;;11.30
54746;BMP180;40640;48.130;11.356;2023-10-31T22:30:44;95191.00;;;11.40
54746;BMP180;40640;48.130;11.356;2023-10-31T22:34:47;95179.00;;;11.30
54746;BMP180;40640;48.130;11.356;2023-10-31T22:38:49;95184.00;;;11.20
54746;BMP180;40640;48.130;11.356;2023-10-31T22:42:54;95196.00;;;11.20
54746;BMP180;40640;48.130;11.356;2023-10-31T22:46:57;95191.00;;;11.40
54746;BMP180;40640;48.130;11.356;2023-10-31T22:51:00;95205.00;;;11.20
54746;BMP180;40640;48.130;11.356;2023-10-31T22:55:03;95193.00;;;11.20
54746;BMP180;40640;48.130;11.356;2023-10-31T22:59:08;95215.00;;;11.30
54746;BMP180;40640;48.130;11.356;2023-10-31T23:03:11;95204.00;;;11.20